Time;durP1;ratioP1;P1;durP2;ratioP2;P2;SDS_P1;SDS_P2;PMS_P1;PMS_P2;Temp;Humidity;BMP_temperature;BMP_pressure;BME280_temperature;BME280_humidity;BME280_pressure;Samples;Min_cycle;Max_cycle;Signal;HPM_P1;HPM_P2
2023/02/07 00:02:09;;;;;;;20.38;10.40;;;;;;;5.13;68.72;104147.94;5043584;28;20043;-40
2023/02/07 00:04:35;;;;;;;22.80;10.05;;;;;;;5.07;68.44;104143.13;5040045;28;20158;-41
2023/02/07 00:07:00;;;;;;;22.10;10.18;;;;;;;5.03;67.86;104140.16;5044058;28;20025;-43
2023/02/07 00:09:25;;;;;;;22.48;9.43;;;;;;;5.02;68.40;104140.94;5042922;28;20120;-40
2023/02/07 00:11:51;;;;;;;23.05;10.57;;;;;;;4.96;67.71;104132.63;5050484;28;20036;-41
2023/02/07 00:14:16;;;;;;;18.50;9.60;;;;;;;4.94;67.66;104124.72;5046575;28;20041;-41
2023/02/07 00:16:41;;;;;;;18.73;8.82;;;;;;;4.90;67.48;104127.84;5049354;28;20037;-40
2023/02/07 00:19:07;;;;;;;19.77;9.82;;;;;;;4.83;67.52;104123.81;5050317;28;20318;-42
2023/02/07 00:21:32;;;;;;;20.48;9.52;;;;;;;4.79;67.64;104129.47;5045645;28;20127;-40
2023/02/07 00:23:58;;;;;;;24.13;9.88;;;;;;;4.76;68.12;104121.44;5048771;28;20408;-40
2023/02/07 00:26:25;;;;;;;21.27;10.60;;;;;;;4.75;67.87;104127.41;5038998;28;20040;-40
2023/02/07 00:28:52;;;;;;;24.02;10.25;;;;;;;4.76;68.43;104134.38;5043575;28;20032;-40
2023/02/07 00:31:27;;;;;;;23.38;10.80;;;;;;;4.80;68.33;104128.72;5041373;28;20123;-40
2023/02/07 00:33:55;;;;;;;31.60;11.68;;;;;;;4.80;68.98;104125.22;5049974;28;20043;-41
2023/02/07 00:36:23;;;;;;;26.63;10.48;;;;;;;4.83;68.26;104125.47;5039941;28;20033;-40
2023/02/07 00:38:48;;;;;;;27.08;10.75;;;;;;;4.84;68.45;104128.19;5049764;28;20041;-42
2023/02/07 00:41:17;;;;;;;33.90;11.55;;;;;;;4.82;68.76;104126.25;5047690;28;20086;-41
2023/02/07 00:43:43;;;;;;;23.65;10.43;;;;;;;4.80;68.32;104126.13;5042940;28;20059;-40
2023/02/07 00:46:09;;;;;;;22.95;10.27;;;;;;;4.77;68.41;104112.91;5044839;28;20044;-45
2023/02/07 00:48:34;;;;;;;29.45;11.07;;;;;;;4.74;68.57;104117.84;5040752;28;20090;-40
2023/02/07 00:51:00;;;;;;;24.77;10.98;;;;;;;4.78;68.19;104119.91;5044206;28;20112;-43
2023/02/07 00:53:28;;;;;;;25.60;10.68;;;;;;;4.80;67.87;104113.22;5041890;28;20043;-40
2023/02/07 00:55:53;;;;;;;24.33;10.85;;;;;;;4.72;68.38;104114.19;5043232;28;20403;-40
2023/02/07 00:58:19;;;;;;;25.35;11.98;;;;;;;4.66;68.46;104107.56;5021514;28;20044;-41
2023/02/07 01:00:44;;;;;;;26.52;11.90;;;;;;;4.64;68.38;104107.44;5042217;28;20128;-39
2023/02/07 01:03:10;;;;;;;23.30;11.38;;;;;;;4.65;68.70;104109.25;5043113;28;20040;-41
2023/02/07 01:05:35;;;;;;;25.63;11.43;;;;;;;4.64;68.22;104106.53;5039496;28;22328;-39
2023/02/07 01:08:01;;;;;;;23.45;10.90;;;;;;;4.66;68.06;104105.91;5043702;28;20055;-40
2023/02/07 01:10:26;;;;;;;27.42;11.80;;;;;;;4.65;68.44;104101.50;5020593;28;20036;-40
2023/02/07 01:12:52;;;;;;;25.48;11.25;;;;;;;4.66;67.97;104100.72;5042836;28;20398;-40
2023/02/07 01:15:17;;;;;;;26.75;11.02;;;;;;;4.69;67.62;104105.28;5038032;28;20056;-41
2023/02/07 01:17:43;;;;;;;24.60;11.02;;;;;;;4.70;67.67;104110.56;5024761;28;20036;-41
2023/02/07 01:20:10;;;;;;;22.42;11.40;;;;;;;4.64;67.97;104103.94;5043539;28;20462;-41
2023/02/07 01:22:38;;;;;;;22.65;11.20;;;;;;;4.62;67.65;104113.25;5044439;28;20506;-43
2023/02/07 01:25:05;;;;;;;23.10;10.73;;;;;;;4.58;67.91;104106.88;5048935;28;20029;-42
2023/02/07 01:27:31;;;;;;;24.50;11.40;;;;;;;4.61;68.32;104106.25;5044684;28;20040;-41
2023/02/07 01:29:57;;;;;;;25.88;11.88;;;;;;;4.63;67.79;104112.50;5048221;28;20037;-41
2023/02/07 01:32:22;;;;;;;23.80;12.00;;;;;;;4.64;68.86;104112.59;5043800;28;20037;-42
2023/02/07 01:34:47;;;;;;;25.17;11.95;;;;;;;4.67;69.02;104118.06;5043626;28;20060;-41
2023/02/07 01:37:13;;;;;;;28.88;12.80;;;;;;;4.77;69.40;104115.50;5042230;28;20552;-40
2023/02/07 01:39:38;;;;;;;31.08;12.02;;;;;;;4.86;68.99;104118.91;5038707;28;20487;-44
2023/02/07 01:42:04;;;;;;;27.73;12.80;;;;;;;4.94;69.02;104116.97;5041457;28;20124;-38
2023/02/07 01:44:30;;;;;;;28.77;13.10;;;;;;;5.00;69.27;104111.47;5037657;28;20037;-41
2023/02/07 01:46:55;;;;;;;25.63;13.32;;;;;;;4.97;69.12;104125.03;5045424;28;20061;-41
2023/02/07 01:49:25;;;;;;;28.65;13.05;;;;;;;5.14;69.08;104119.63;5039375;28;20025;-40
2023/02/07 01:51:54;;;;;;;25.17;12.45;;;;;;;5.12;68.73;104122.88;5042168;28;20468;-43
2023/02/07 01:54:21;;;;;;;23.60;12.32;;;;;;;5.11;68.92;104124.56;5041727;28;20516;-41
2023/02/07 01:56:52;;;;;;;23.45;12.23;;;;;;;5.12;67.99;104126.34;5038314;28;20029;-41
2023/02/07 01:59:18;;;;;;;21.08;11.40;;;;;;;5.06;68.80;104128.38;5036309;28;20087;-42
2023/02/07 02:01:44;;;;;;;23.23;12.30;;;;;;;5.05;68.35;104128.28;5041224;28;20041;-41
2023/02/07 02:04:10;;;;;;;20.42;10.95;;;;;;;5.06;68.23;104132.69;5042094;28;20056;-40
2023/02/07 02:06:37;;;;;;;24.35;11.93;;;;;;;5.06;68.82;104132.69;5038098;28;20072;-40
2023/02/07 02:09:08;;;;;;;24.70;12.23;;;;;;;5.05;68.66;104139.53;5042165;28;20379;-42
2023/02/07 02:11:52;;;;;;;30.45;12.55;;;;;;;5.03;68.64;104140.16;5037358;28;20127;-41
2023/02/07 02:14:45;;;;;;;24.45;12.52;;;;;;;5.02;69.16;104130.59;5038099;28;20534;-43
2023/02/07 02:17:15;;;;;;;25.17;11.95;;;;;;;5.00;68.78;104127.84;5042348;28;20029;-41
2023/02/07 02:20:05;;;;;;;28.50;12.45;;;;;;;4.96;68.64;104125.78;5048768;28;20044;-41
2023/02/07 02:22:43;;;;;;;25.40;11.68;;;;;;;4.95;68.49;104130.81;5044708;28;20033;-41
2023/02/07 02:25:46;;;;;;;24.10;11.50;;;;;;;4.95;68.39;104128.22;5040779;28;20570;-43
2023/02/07 02:28:45;;;;;;;25.50;11.27;;;;;;;4.89;67.99;104118.25;5046540;28;20035;-41
2023/02/07 02:31:28;;;;;;;23.13;11.70;;;;;;;4.84;68.09;104112.69;5043829;28;20044;-40
2023/02/07 02:34:06;;;;;;;23.23;11.73;;;;;;;4.82;68.19;104119.41;5045060;28;20376;-41
2023/02/07 02:36:50;;;;;;;21.17;11.30;;;;;;;4.79;68.10;104119.13;5044904;28;20036;-43
2023/02/07 02:39:27;;;;;;;26.52;12.00;;;;;;;4.81;68.46;104117.63;5046759;28;20067;-40
2023/02/07 02:42:07;;;;;;;23.17;11.60;;;;;;;4.85;68.32;104114.50;5041123;28;20037;-41
2023/02/07 02:44:57;;;;;;;32.47;12.80;;;;;;;4.79;69.49;104121.72;5042014;28;20126;-41
2023/02/07 02:47:23;;;;;;;28.75;12.35;;;;;;;5.03;69.15;104119.47;5042458;28;20040;-42
2023/02/07 02:49:49;;;;;;;25.77;11.50;;;;;;;5.08;69.24;104118.19;5046576;28;20037;-42
2023/02/07 02:52:14;;;;;;;25.90;11.77;;;;;;;5.10;68.57;104106.31;5045639;28;20025;-43
2023/02/07 02:54:40;;;;;;;26.65;12.32;;;;;;;5.11;69.18;104108.13;5041972;28;20717;-40
2023/02/07 02:57:36;;;;;;;25.58;11.70;;;;;;;5.13;68.41;104098.81;5045677;28;20036;-40
2023/02/07 03:00:11;;;;;;;24.70;11.63;;;;;;;5.14;68.85;104108.38;5042330;28;20521;-43
2023/02/07 03:02:58;;;;;;;24.63;11.13;;;;;;;5.10;68.94;104095.97;5041176;28;20043;-39
2023/02/07 03:05:38;;;;;;;24.00;10.88;;;;;;;5.07;68.39;104085.34;5042164;28;20053;-40
2023/02/07 03:08:11;;;;;;;25.48;10.77;;;;;;;5.05;68.74;104084.31;5047185;28;20506;-45
2023/02/07 03:10:48;;;;;;;28.83;11.27;;;;;;;5.00;68.14;104096.81;5042853;28;22156;-40
2023/02/07 03:13:36;;;;;;;30.10;12.70;;;;;;;4.96;68.92;104089.59;5045952;28;20032;-40
2023/02/07 03:16:18;;;;;;;25.85;11.75;;;;;;;4.98;68.55;104084.56;5041506;28;20033;-40
2023/02/07 03:19:05;;;;;;;25.05;11.70;;;;;;;4.97;68.34;104085.31;5042532;28;20123;-41
2023/02/07 03:21:34;;;;;;;30.00;12.57;;;;;;;4.55;70.09;104085.97;5016721;22;20046;-46
2023/02/07 03:24:06;;;;;;;27.45;12.32;;;;;;;5.00;69.50;104095.94;4987120;28;20038;-45
2023/02/07 03:26:34;;;;;;;26.67;11.77;;;;;;;5.02;68.70;104084.94;4980828;28;20038;-44
2023/02/07 03:29:01;;;;;;;28.10;12.32;;;;;;;4.89;68.46;104085.56;4983115;28;20026;-45
2023/02/07 03:31:30;;;;;;;35.67;12.63;;;;;;;4.83;68.62;104081.53;4978873;28;20107;-45
2023/02/07 03:34:04;;;;;;;28.30;12.38;;;;;;;4.79;68.79;104082.94;4983572;28;20057;-47
2023/02/07 03:36:38;;;;;;;30.35;12.38;;;;;;;4.84;69.54;104079.09;4979546;28;20087;-44
2023/02/07 03:39:04;;;;;;;31.88;12.40;;;;;;;5.06;69.23;104086.13;4983058;28;20113;-46
2023/02/07 03:41:37;;;;;;;29.05;12.52;;;;;;;5.06;68.79;104079.25;4978723;28;20049;-47
2023/02/07 03:44:05;;;;;;;32.47;13.00;;;;;;;4.97;68.88;104074.97;4983299;28;20026;-44
2023/02/07 03:46:38;;;;;;;32.15;13.52;;;;;;;5.08;69.12;104072.56;4979151;28;20035;-44
2023/02/07 03:49:06;;;;;;;34.25;13.63;;;;;;;5.09;68.91;104074.38;4982749;28;20076;-47
2023/02/07 03:51:33;;;;;;;39.78;13.75;;;;;;;5.00;69.60;104078.72;4981645;28;20061;-45
2023/02/07 03:53:58;;;;;;;36.60;13.65;;;;;;;5.09;70.58;104081.22;4987641;28;20030;-46
2023/02/07 03:56:24;;;;;;;40.92;14.40;;;;;;;5.29;69.91;104078.69;4981065;28;20034;-47
2023/02/07 03:58:49;;;;;;;31.90;14.05;;;;;;;5.28;69.52;104072.59;4985035;28;20041;-45
2023/02/07 04:01:15;;;;;;;43.08;14.27;;;;;;;5.34;69.98;104076.47;4982572;28;20489;-45
2023/02/07 04:03:40;;;;;;;38.42;13.80;;;;;;;5.39;68.90;104076.09;4978951;28;20045;-44
2023/02/07 04:06:05;;;;;;;32.80;13.98;;;;;;;5.38;69.25;104079.44;4982898;28;20404;-45
2023/02/07 04:08:31;;;;;;;34.08;14.50;;;;;;;5.22;69.70;104079.81;4979739;28;20034;-50
2023/02/07 04:11:01;;;;;;;40.03;14.55;;;;;;;5.18;70.16;104084.63;4983512;28;20030;-45
2023/02/07 04:13:27;;;;;;;34.67;14.30;;;;;;;5.41;70.00;104086.56;4979913;28;20117;-44
2023/02/07 04:15:52;;;;;;;39.13;15.48;;;;;;;5.26;70.08;104080.97;4982902;28;20603;-44
2023/02/07 04:18:18;;;;;;;34.78;14.95;;;;;;;5.45;69.67;104074.03;4979068;28;20064;-48
2023/02/07 04:20:43;;;;;;;38.70;14.88;;;;;;;5.43;69.40;104077.28;4982203;28;20046;-44
2023/02/07 04:23:08;;;;;;;37.47;14.50;;;;;;;5.48;69.11;104078.56;4982753;28;20050;-44
2023/02/07 04:25:33;;;;;;;40.15;14.40;;;;;;;5.33;69.30;104080.75;4978904;28;20039;-46
2023/02/07 04:27:59;;;;;;;31.15;14.27;;;;;;;5.42;68.99;104086.72;4982602;28;20083;-45
2023/02/07 04:30:24;;;;;;;34.03;15.13;;;;;;;5.39;69.62;104088.13;4978685;28;20485;-45
2023/02/07 04:32:49;;;;;;;40.40;15.18;;;;;;;5.31;69.45;104083.19;4983515;28;20069;-47
2023/02/07 04:35:15;;;;;;;38.20;14.90;;;;;;;5.35;69.43;104086.06;4966003;28;20087;-44
2023/02/07 04:37:40;;;;;;;37.35;15.60;;;;;;;5.19;70.42;104088.97;4981134;28;20042;-44
2023/02/07 04:40:06;;;;;;;38.83;16.08;;;;;;;5.22;70.46;104095.34;4985701;28;20122;-44
2023/02/07 04:42:31;;;;;;;39.70;16.17;;;;;;;5.27;70.03;104093.16;4981642;28;20064;-44
2023/02/07 04:44:57;;;;;;;41.78;16.70;;;;;;;5.04;70.78;104085.09;4983263;28;20532;-46
2023/02/07 04:47:22;;;;;;;38.50;15.77;;;;;;;5.05;71.32;104086.91;4978906;28;20088;-46
2023/02/07 04:49:48;;;;;;;34.67;15.68;;;;;;;5.05;71.20;104086.91;4981954;28;20125;-45
2023/02/07 04:52:13;;;;;;;37.03;16.20;;;;;;;5.15;70.51;104082.66;4982931;28;20034;-46
2023/02/07 04:54:38;;;;;;;43.80;15.23;;;;;;;5.23;69.60;104076.47;4980884;28;20117;-45
2023/02/07 04:57:04;;;;;;;40.75;15.68;;;;;;;5.29;69.62;104073.50;4966894;28;20054;-45
2023/02/07 04:59:29;;;;;;;46.33;16.13;;;;;;;5.29;69.24;104068.34;4980401;28;20045;-43
2023/02/07 05:01:55;;;;;;;38.35;15.70;;;;;;;5.17;68.72;104069.88;4984598;28;20046;-45
2023/02/07 05:04:20;;;;;;;43.80;15.45;;;;;;;5.16;69.32;104068.97;4982504;28;20069;-45
2023/02/07 05:06:46;;;;;;;45.42;17.33;;;;;;;4.87;70.31;104055.19;4986920;28;20530;-44
2023/02/07 05:09:11;;;;;;;39.42;15.82;;;;;;;4.97;69.08;104062.06;4988057;28;20553;-43
2023/02/07 05:11:37;;;;;;;38.35;16.65;;;;;;;5.04;70.00;104067.91;4984641;28;20034;-46
2023/02/07 05:14:02;;;;;;;37.47;16.00;;;;;;;5.07;68.90;104075.00;4989298;28;20086;-44
2023/02/07 05:16:27;;;;;;;38.05;16.45;;;;;;;4.75;70.24;104079.97;4985258;28;20412;-44
2023/02/07 05:18:53;;;;;;;40.00;16.70;;;;;;;5.03;69.36;104079.00;4988915;28;20034;-48
2023/02/07 05:21:18;;;;;;;37.72;16.85;;;;;;;5.00;68.70;104078.72;4983477;28;20107;-44
2023/02/07 05:23:43;;;;;;;35.45;15.95;;;;;;;4.90;68.76;104081.28;4984080;28;20133;-41
2023/02/07 05:26:09;;;;;;;40.45;16.33;;;;;;;4.87;68.61;104091.38;4983588;28;20033;-46
2023/02/07 05:28:34;;;;;;;41.95;16.52;;;;;;;4.80;69.34;104086.44;4979887;28;20038;-45
2023/02/07 05:30:59;;;;;;;41.03;16.27;;;;;;;4.86;69.55;104081.81;4982446;28;20027;-45
2023/02/07 05:33:25;;;;;;;36.05;16.50;;;;;;;4.84;68.41;104081.66;4979024;28;20038;-43
2023/02/07 05:35:50;;;;;;;44.85;17.08;;;;;;;4.72;68.89;104095.19;4982606;28;20034;-44
2023/02/07 05:38:17;;;;;;;43.10;18.05;;;;;;;4.78;69.20;104087.97;4982020;28;20038;-43
2023/02/07 05:40:42;;;;;;;45.00;17.80;;;;;;;4.79;68.89;104089.78;4977667;28;20035;-48
2023/02/07 05:43:09;;;;;;;41.53;17.30;;;;;;;4.58;68.86;104096.56;4984796;28;20404;-44
2023/02/07 05:45:34;;;;;;;47.75;18.17;;;;;;;4.64;69.89;104089.34;4981148;28;20088;-47
2023/02/07 05:48:00;;;;;;;38.38;16.75;;;;;;;4.74;69.83;104092.00;4983553;28;20096;-42
2023/02/07 05:50:26;;;;;;;47.72;18.30;;;;;;;4.53;69.62;104084.00;4977225;28;20038;-45
2023/02/07 05:52:52;;;;;;;35.40;17.88;;;;;;;4.69;69.47;104093.25;4982471;28;20031;-44
2023/02/07 05:55:17;;;;;;;36.47;17.38;;;;;;;4.59;70.31;104093.19;4961005;28;20122;-45
2023/02/07 05:57:43;;;;;;;41.38;17.58;;;;;;;4.72;68.87;104097.78;4982293;28;20027;-44
2023/02/07 06:00:15;;;;;;;40.55;16.90;;;;;;;4.68;68.35;104091.44;4983017;28;20324;-43
2023/02/07 06:02:41;;;;;;;42.50;16.73;;;;;;;4.59;68.47;104093.19;4962935;28;20038;-45
2023/02/07 06:05:10;;;;;;;42.10;17.23;;;;;;;4.51;68.32;104095.91;4985009;28;20038;-47
2023/02/07 06:07:35;;;;;;;40.15;16.55;;;;;;;4.45;68.30;104086.81;4980110;28;20518;-44
2023/02/07 06:10:01;;;;;;;38.85;16.45;;;;;;;4.40;68.11;104090.66;4984029;28;20061;-44
2023/02/07 06:12:26;;;;;;;39.25;17.73;;;;;;;4.33;69.00;104096.03;4980758;28;20033;-45
2023/02/07 06:14:52;;;;;;;42.13;18.10;;;;;;;4.32;68.51;104098.50;4986022;28;20033;-45
2023/02/07 06:17:17;;;;;;;47.75;18.25;;;;;;;4.27;68.83;104105.81;4981857;28;20026;-44
2023/02/07 06:19:42;;;;;;;45.40;17.38;;;;;;;4.33;68.60;104098.63;4984697;28;20034;-46
2023/02/07 06:22:08;;;;;;;44.47;19.00;;;;;;;4.25;69.53;104103.88;4983515;28;20042;-46
2023/02/07 06:24:33;;;;;;;40.83;17.67;;;;;;;4.30;69.58;104112.94;4980693;28;20133;-45
2023/02/07 06:26:59;;;;;;;46.53;18.60;;;;;;;4.37;69.47;104105.00;4986428;28;20030;-48
2023/02/07 06:29:24;;;;;;;47.55;18.38;;;;;;;4.30;70.01;104107.78;4981626;28;20061;-45
2023/02/07 06:31:49;;;;;;;45.03;18.60;;;;;;;4.48;69.74;104106.84;4981484;28;20034;-45
2023/02/07 06:34:14;;;;;;;45.05;17.17;;;;;;;4.48;69.40;104117.19;4981913;28;20026;-44
2023/02/07 06:36:40;;;;;;;43.40;18.17;;;;;;;4.47;69.13;104117.94;4983065;28;20056;-44
2023/02/07 06:39:05;;;;;;;40.63;17.98;;;;;;;4.40;68.93;104113.91;4988339;28;20031;-43
2023/02/07 06:41:30;;;;;;;43.50;18.10;;;;;;;4.37;68.51;104123.06;4979449;28;20129;-44
2023/02/07 06:43:56;;;;;;;50.17;18.02;;;;;;;4.33;68.60;104115.81;4982217;28;20038;-50
2023/02/07 06:46:21;;;;;;;47.38;19.05;;;;;;;4.21;69.69;104122.47;4982560;28;20030;-43
2023/02/07 06:48:46;;;;;;;43.50;19.90;;;;;;;4.31;69.24;104126.00;4981955;28;20079;-45
2023/02/07 06:51:12;;;;;;;48.40;20.73;;;;;;;4.33;69.66;104121.00;4979597;28;20042;-44
2023/02/07 06:53:37;;;;;;;57.17;21.35;;;;;;;4.17;70.57;104126.44;4976283;28;20125;-44
2023/02/07 06:56:03;;;;;;;52.60;22.13;;;;;;;4.04;70.97;104126.97;4979908;28;20026;-48
2023/02/07 06:58:28;;;;;;;57.80;22.58;;;;;;;4.11;71.12;104118.13;4977082;28;20043;-43
2023/02/07 07:00:53;;;;;;;67.05;23.63;;;;;;;4.28;71.00;104119.63;4979763;28;20095;-44
2023/02/07 07:03:19;;;;;;;72.88;24.17;;;;;;;4.11;71.01;104127.53;4977897;28;20544;-48
2023/02/07 07:05:44;;;;;;;67.65;23.48;;;;;;;4.22;70.97;104121.66;4980858;28;20038;-44
2023/02/07 07:08:13;;;;;;;70.53;22.95;;;;;;;4.17;70.99;104129.00;4980298;28;20053;-43
2023/02/07 07:10:38;;;;;;;65.60;23.13;;;;;;;4.40;70.38;104129.41;4976091;28;20463;-43
2023/02/07 07:13:04;;;;;;;71.78;22.92;;;;;;;4.25;71.30;104134.88;4980285;28;20072;-44
2023/02/07 07:15:29;;;;;;;59.13;22.65;;;;;;;4.62;70.76;104141.69;4979983;28;20133;-43
2023/02/07 07:17:54;;;;;;;71.05;24.48;;;;;;;4.69;70.36;104141.47;4966535;28;20037;-45
2023/02/07 07:20:20;;;;;;;65.68;24.00;;;;;;;4.80;69.98;104144.22;4978645;28;20131;-46
2023/02/07 07:22:45;;;;;;;77.43;24.85;;;;;;;4.72;70.74;104140.03;4983441;28;20088;-45
2023/02/07 07:25:11;;;;;;;72.63;24.13;;;;;;;4.63;71.24;104141.81;4983435;28;20121;-44
2023/02/07 07:27:36;;;;;;;75.43;26.25;;;;;;;4.73;71.34;104141.84;4979847;28;20127;-44
2023/02/07 07:30:03;;;;;;;73.30;26.30;;;;;;;4.83;70.87;104148.75;4983321;28;20030;-44
2023/02/07 07:32:28;;;;;;;71.28;25.80;;;;;;;4.91;70.97;104150.34;4979127;28;20049;-43
2023/02/07 07:34:53;;;;;;;68.80;25.17;;;;;;;4.95;70.31;104151.50;4965877;28;20035;-44
2023/02/07 07:37:19;;;;;;;75.13;26.10;;;;;;;4.96;70.23;104154.22;4980029;28;20035;-46
2023/02/07 07:39:45;;;;;;;63.03;25.52;;;;;;;4.47;71.37;104160.19;4984714;28;20041;-46
2023/02/07 07:42:10;;;;;;;69.95;24.90;;;;;;;4.62;70.98;104157.19;4982056;28;20271;-48
2023/02/07 07:44:35;;;;;;;66.60;25.92;;;;;;;4.75;70.54;104150.66;4978680;28;20308;-46
2023/02/07 07:47:01;;;;;;;64.63;24.88;;;;;;;4.83;70.03;104161.66;4982941;28;20045;-45
2023/02/07 07:49:26;;;;;;;68.60;25.20;;;;;;;4.79;70.18;104165.66;4979554;28;20118;-43
2023/02/07 07:51:52;;;;;;;65.95;24.83;;;;;;;4.44;70.74;104167.69;4982182;28;20514;-49
2023/02/07 07:54:17;;;;;;;58.97;23.88;;;;;;;4.33;71.15;104178.69;4979386;28;20034;-49
2023/02/07 07:56:43;;;;;;;62.58;24.27;;;;;;;4.40;70.78;104168.16;4983620;28;20030;-45
2023/02/07 07:59:08;;;;;;;78.10;24.45;;;;;;;4.40;71.09;104172.41;4983288;28;20039;-44
2023/02/07 08:01:33;;;;;;;65.47;24.95;;;;;;;4.65;70.77;104170.38;4978537;28;20489;-44
2023/02/07 08:03:59;;;;;;;68.60;24.80;;;;;;;4.78;69.54;104163.84;4985474;28;20064;-44
2023/02/07 08:06:24;;;;;;;62.60;23.92;;;;;;;4.87;69.60;104167.25;4981077;28;20026;-44
2023/02/07 08:08:49;;;;;;;61.42;23.88;;;;;;;4.82;70.78;104162.44;4982971;28;20034;-45
2023/02/07 08:11:15;;;;;;;59.10;24.23;;;;;;;5.02;69.84;104167.69;4981303;28;20132;-44
2023/02/07 08:13:40;;;;;;;62.92;23.48;;;;;;;4.73;70.91;104166.78;4978818;28;20203;-43
2023/02/07 08:16:09;;;;;;;65.25;24.88;;;;;;;4.85;70.00;104161.03;4982550;28;20038;-46
2023/02/07 08:18:35;;;;;;;67.30;24.50;;;;;;;5.00;69.46;104161.47;4978824;28;20041;-46
2023/02/07 08:21:01;;;;;;;58.92;22.85;;;;;;;4.98;70.04;104164.72;4981687;28;20248;-47
2023/02/07 08:23:27;;;;;;;63.15;23.02;;;;;;;5.06;70.19;104167.19;4978782;28;20034;-44
2023/02/07 08:25:52;;;;;;;55.72;23.52;;;;;;;5.21;69.42;104175.38;4984711;28;20039;-45
2023/02/07 08:28:20;;;;;;;62.85;23.75;;;;;;;5.16;68.82;104166.31;4981449;28;20061;-45
2023/02/07 08:30:46;;;;;;;55.20;22.60;;;;;;;5.18;68.89;104177.72;4982180;28;20042;-47
2023/02/07 08:33:12;;;;;;;60.03;23.42;;;;;;;4.86;69.10;104170.63;4982389;28;20030;-47
2023/02/07 08:35:37;;;;;;;55.85;22.73;;;;;;;5.15;69.79;104170.59;4978621;28;20162;-44
2023/02/07 08:38:03;;;;;;;52.92;22.50;;;;;;;5.23;70.03;104174.78;4982446;28;20489;-46
2023/02/07 08:40:28;;;;;;;57.47;22.15;;;;;;;5.22;70.06;104170.38;4977424;28;20047;-45
2023/02/07 08:42:54;;;;;;;54.42;22.38;;;;;;;5.38;68.86;104174.25;4982281;28;20433;-44
2023/02/07 08:45:19;;;;;;;56.78;22.85;;;;;;;5.26;67.89;104168.94;4978405;28;20035;-44
2023/02/07 08:47:45;;;;;;;54.95;20.75;;;;;;;5.38;68.59;104172.59;4982030;28;20034;-46
2023/02/07 08:50:14;;;;;;;54.03;22.30;;;;;;;5.49;69.08;104171.84;4983582;28;20038;-43
2023/02/07 08:52:40;;;;;;;56.65;21.70;;;;;;;5.48;68.05;104182.06;4979350;28;20113;-44
2023/02/07 08:55:06;;;;;;;49.28;21.63;;;;;;;5.53;67.71;104176.53;4982328;28;20129;-44
2023/02/07 08:57:32;;;;;;;68.03;22.73;;;;;;;5.25;67.73;104174.88;4978357;28;20547;-44
2023/02/07 08:59:58;;;;;;;52.67;21.75;;;;;;;5.44;67.97;104169.63;4982339;28;20095;-43
2023/02/07 09:02:24;;;;;;;53.63;21.80;;;;;;;5.25;68.91;104177.47;4977115;28;20069;-47
2023/02/07 09:04:50;;;;;;;50.00;21.17;;;;;;;5.36;69.04;104170.66;4982060;28;20561;-51
2023/02/07 09:07:16;;;;;;;61.65;22.00;;;;;;;5.46;67.85;104178.44;4982321;28;20030;-44
2023/02/07 09:09:42;;;;;;;52.72;22.23;;;;;;;5.44;67.17;104186.06;4961710;28;20118;-45
2023/02/07 09:12:08;;;;;;;54.90;22.02;;;;;;;5.50;67.43;104183.09;4982918;28;20058;-45
2023/02/07 09:14:34;;;;;;;52.03;21.80;;;;;;;5.60;67.73;104178.88;4980197;28;20034;-46
2023/02/07 09:16:59;;;;;;;56.63;22.23;;;;;;;5.57;68.76;104172.50;4983350;28;20382;-43
2023/02/07 09:19:25;;;;;;;73.97;22.40;;;;;;;5.47;68.43;104169.91;4979267;28;20042;-44
2023/02/07 09:21:50;;;;;;;52.47;22.17;;;;;;;5.45;68.20;104176.63;4995602;22;20050;-40
2023/02/07 09:24:17;;;;;;;57.13;22.67;;;;;;;5.60;66.69;104167.59;4978191;28;20077;-40
2023/02/07 09:26:42;;;;;;;49.72;22.40;;;;;;;5.68;66.88;104172.63;4981524;28;20053;-39
2023/02/07 09:29:12;;;;;;;52.88;22.52;;;;;;;5.91;67.43;104168.56;4980981;28;20123;-41
2023/02/07 09:31:37;;;;;;;54.92;22.52;;;;;;;5.82;67.36;104160.88;4976694;28;20042;-42
2023/02/07 09:34:03;;;;;;;49.35;21.45;;;;;;;5.85;67.61;104158.56;4981535;28;20037;-40
2023/02/07 09:36:30;;;;;;;50.88;21.80;;;;;;;5.91;66.43;104164.31;4980580;28;20489;-40
2023/02/07 09:38:55;;;;;;;50.88;21.88;;;;;;;5.94;66.67;104161.03;4984023;28;20026;-41
2023/02/07 09:41:32;;;;;;;51.67;21.88;;;;;;;6.10;66.32;104169.31;4976692;28;20041;-40
2023/02/07 09:44:11;;;;;;;48.05;22.48;;;;;;;5.97;65.42;104167.41;4980650;28;20040;-40
2023/02/07 09:46:36;;;;;;;54.55;22.95;;;;;;;6.03;65.87;104164.41;4976351;28;20492;-40
2023/02/07 09:49:25;;;;;;;53.55;23.27;;;;;;;6.25;65.81;104165.44;4980625;28;20235;-40
2023/02/07 09:51:52;;;;;;;57.83;22.85;;;;;;;6.38;64.52;104157.91;4975716;28;20414;-40
2023/02/07 09:54:24;;;;;;;45.28;21.17;;;;;;;6.10;64.95;104158.94;4980622;28;20115;-39
2023/02/07 09:56:56;;;;;;;48.88;21.85;;;;;;;6.28;65.29;104157.00;4976790;28;20033;-40
2023/02/07 09:59:24;;;;;;;50.25;21.80;;;;;;;6.08;63.91;104164.03;4980264;28;20034;-41
2023/02/07 10:01:57;;;;;;;48.00;21.85;;;;;;;5.65;64.98;104156.88;4958383;28;20041;-42
2023/02/07 10:04:34;;;;;;;51.50;22.52;;;;;;;5.77;65.97;104150.91;4976221;28;20038;-40
2023/02/07 10:06:59;;;;;;;51.42;23.30;;;;;;;5.71;65.95;104169.41;4980483;28;20026;-42
2023/02/07 10:09:31;;;;;;;48.95;22.65;;;;;;;5.67;65.64;104168.22;4976656;28;20049;-39
2023/02/07 10:12:05;;;;;;;49.28;22.75;;;;;;;5.96;65.95;104159.50;4980576;28;20391;-40
2023/02/07 10:14:55;;;;;;;58.55;24.58;;;;;;;6.07;67.04;104162.22;4977424;28;20031;-41
2023/02/07 10:17:32;;;;;;;57.08;23.70;;;;;;;6.48;65.63;104173.41;4976569;28;20424;-40
2023/02/07 10:20:25;;;;;;;53.65;23.58;;;;;;;6.52;64.61;104179.78;4979940;28;20037;-41
2023/02/07 10:23:14;;;;;;;49.80;22.65;;;;;;;6.66;64.72;104176.59;4976397;28;20125;-40
2023/02/07 10:25:47;;;;;;;53.22;22.95;;;;;;;6.10;65.84;104179.66;4975747;28;20399;-40
2023/02/07 10:28:12;;;;;;;53.92;23.02;;;;;;;5.89;65.64;104178.78;4980347;28;20034;-44
2023/02/07 10:30:39;;;;;;;53.22;24.10;;;;;;;5.71;65.82;104187.53;4975806;28;20095;-43
2023/02/07 10:33:20;;;;;;;54.83;24.13;;;;;;;6.05;64.79;104178.38;4980534;28;20038;-42
2023/02/07 10:35:47;;;;;;;50.88;23.85;;;;;;;6.04;65.87;104180.06;4977447;28;20852;-40
2023/02/07 10:38:29;;;;;;;57.13;24.15;;;;;;;6.09;66.08;104183.06;4982295;28;20041;-40
2023/02/07 10:41:01;;;;;;;50.05;23.60;;;;;;;6.14;65.07;104188.63;4977602;28;20043;-40
2023/02/07 10:43:31;;;;;;;52.83;24.33;;;;;;;6.09;65.03;104186.56;4981212;28;20523;-41
2023/02/07 10:46:00;;;;;;;49.95;23.75;;;;;;;6.03;65.53;104191.22;4985568;28;20046;-41
2023/02/07 10:48:27;;;;;;;51.55;23.63;;;;;;;5.92;66.01;104197.16;4977874;28;20038;-40
2023/02/07 10:50:52;;;;;;;56.60;24.52;;;;;;;6.04;65.99;104193.00;4982706;28;20126;-40
2023/02/07 10:53:47;;;;;;;49.13;22.67;;;;;;;6.15;65.57;104195.63;4979580;28;20107;-39
2023/02/07 10:56:18;;;;;;;50.30;22.20;;;;;;;6.39;64.98;104202.84;4982872;28;20129;-40
2023/02/07 10:58:44;;;;;;;46.10;21.23;;;;;;;6.53;65.02;104200.59;4979239;28;20105;-43
2023/02/07 11:01:36;;;;;;;47.83;21.35;;;;;;;6.69;65.89;104205.38;4982503;28;20039;-40
2023/02/07 11:04:20;;;;;;;46.55;21.75;;;;;;;6.71;65.73;104203.81;4980158;28;20068;-40
2023/02/07 11:06:58;;;;;;;43.83;21.35;;;;;;;6.72;65.36;104204.72;4984178;28;20446;-40
2023/02/07 11:09:23;;;;;;;43.65;19.95;;;;;;;6.74;64.56;104198.88;4982411;28;20035;-37
2023/02/07 11:11:51;;;;;;;43.97;20.23;;;;;;;6.74;62.56;104197.97;4982097;28;20034;-41
2023/02/07 11:14:26;;;;;;;41.65;19.92;;;;;;;6.84;63.37;104188.47;4983308;28;20168;-40
2023/02/07 11:16:57;;;;;;;39.45;19.73;;;;;;;6.88;62.24;104189.66;4978911;28;20034;-40
2023/02/07 11:19:28;;;;;;;44.15;20.23;;;;;;;6.55;63.65;104192.97;4978893;28;20527;-40
2023/02/07 11:22:09;;;;;;;45.50;20.48;;;;;;;6.27;64.03;104187.19;4981383;28;20035;-41
2023/02/07 11:24:36;;;;;;;40.28;19.85;;;;;;;6.33;64.08;104173.84;4978746;28;20483;-40